createdAt,value
2019-03-18T00:00:58.199Z,0.00
2019-03-18T00:02:08.846Z,0.00
2019-03-18T00:03:19.500Z,0.00
2019-03-18T00:04:30.149Z,0.00
2019-03-18T00:05:41.308Z,0.00
2019-03-18T00:06:52.625Z,0.00
2019-03-18T00:08:03.777Z,0.00
2019-03-18T00:09:14.413Z,0.00
2019-03-18T00:10:25.555Z,0.00
2019-03-18T00:11:36.694Z,0.00
2019-03-18T00:12:47.339Z,0.00
2019-03-18T00:13:58.672Z,0.00
2019-03-18T00:15:09.767Z,0.00
2019-03-18T00:16:20.404Z,0.00
2019-03-18T00:17:31.552Z,0.00
2019-03-18T00:18:42.687Z,0.00
2019-03-18T00:19:53.838Z,0.00
2019-03-18T00:21:04.974Z,0.00
2019-03-18T00:22:15.613Z,0.00
2019-03-18T00:23:26.764Z,0.00
2019-03-18T00:24:37.404Z,0.00
2019-03-18T00:25:48.038Z,0.00
2019-03-18T00:26:58.687Z,0.00
2019-03-18T00:28:09.325Z,0.00
2019-03-18T00:29:19.978Z,0.00
2019-03-18T00:30:31.108Z,0.00
2019-03-18T00:31:42.237Z,0.00
2019-03-18T00:32:53.376Z,0.00
2019-03-18T00:34:04.631Z,0.00
2019-03-18T00:35:15.763Z,0.00
2019-03-18T00:36:26.424Z,0.00
2019-03-18T00:37:37.078Z,0.00
2019-03-18T00:38:48.213Z,0.00
2019-03-18T00:39:58.860Z,0.00
2019-03-18T00:41:09.993Z,0.00
2019-03-18T00:42:20.623Z,0.00
2019-03-18T00:43:31.991Z,0.00
2019-03-18T00:44:43.130Z,0.00
2019-03-18T00:45:53.770Z,0.00
2019-03-18T00:47:04.420Z,0.00
2019-03-18T00:48:15.061Z,0.00
2019-03-18T00:49:25.689Z,0.00
2019-03-18T00:50:36.843Z,0.00
2019-03-18T00:51:47.470Z,0.00
2019-03-18T00:52:58.623Z,0.00
2019-03-18T00:54:09.256Z,0.00
2019-03-18T00:55:20.395Z,0.00
2019-03-18T00:56:31.033Z,0.00
2019-03-18T00:57:44.164Z,0.00
2019-03-18T00:58:54.797Z,0.00
2019-03-18T01:00:05.925Z,0.00
2019-03-18T01:01:16.569Z,0.00
2019-03-18T01:02:27.215Z,0.00
2019-03-18T01:03:37.859Z,0.00
2019-03-18T01:04:48.987Z,0.00
2019-03-18T01:06:00.125Z,0.00
2019-03-18T01:07:11.245Z,0.00
2019-03-18T01:08:21.883Z,0.00
2019-03-18T01:09:33.000Z,0.00
2019-03-18T01:10:44.148Z,0.00
2019-03-18T01:11:55.281Z,0.00
2019-03-18T01:13:05.909Z,0.00
2019-03-18T01:14:16.537Z,0.00
2019-03-18T01:15:28.614Z,0.00
2019-03-18T01:16:37.808Z,0.00
2019-03-18T01:17:48.440Z,0.00
2019-03-18T01:18:59.570Z,0.00
2019-03-18T01:20:10.202Z,0.00
2019-03-18T01:21:20.864Z,0.00
2019-03-18T01:22:31.977Z,0.00
2019-03-18T01:23:43.106Z,0.00
2019-03-18T01:24:54.232Z,0.00
2019-03-18T01:26:04.869Z,0.00
2019-03-18T01:27:15.999Z,0.00
2019-03-18T01:28:27.133Z,0.00
2019-03-18T01:29:37.771Z,0.00
2019-03-18T01:30:48.906Z,0.00
2019-03-18T01:31:59.552Z,0.00
2019-03-18T01:33:10.689Z,0.00
2019-03-18T01:34:21.821Z,0.00
2019-03-18T01:35:32.637Z,0.00
2019-03-18T01:36:43.277Z,0.00
2019-03-18T01:37:54.404Z,0.00
2019-03-18T01:39:05.567Z,0.00
2019-03-18T01:40:16.706Z,0.00
2019-03-18T01:41:27.844Z,0.00
2019-03-18T01:42:38.652Z,0.00
2019-03-18T01:43:49.282Z,0.00
2019-03-18T01:44:59.923Z,0.00
2019-03-18T01:46:10.555Z,0.00
2019-03-18T01:47:21.693Z,0.00
2019-03-18T01:48:32.829Z,0.00
2019-03-18T01:49:43.465Z,0.00
2019-03-18T01:50:54.096Z,0.00
2019-03-18T01:52:04.727Z,0.00
2019-03-18T01:53:15.868Z,0.00
2019-03-18T01:54:26.507Z,0.00
2019-03-18T01:55:37.219Z,0.00
2019-03-18T01:56:48.271Z,0.00
2019-03-18T01:57:58.914Z,0.00
2019-03-18T01:59:09.550Z,0.00
2019-03-18T02:00:20.192Z,0.00
2019-03-18T02:01:30.824Z,0.00
2019-03-18T02:02:41.991Z,0.00
2019-03-18T02:03:52.720Z,0.00
2019-03-18T02:05:03.777Z,0.00
2019-03-18T02:06:14.411Z,0.00
2019-03-18T02:07:25.042Z,0.00
2019-03-18T02:08:35.699Z,0.00
2019-03-18T02:09:46.817Z,0.00
2019-03-18T02:10:57.448Z,0.00
2019-03-18T02:12:08.638Z,0.00
2019-03-18T02:13:19.768Z,0.00
2019-03-18T02:14:30.396Z,0.00
2019-03-18T02:15:52.662Z,0.00
2019-03-18T02:16:52.156Z,0.00
2019-03-18T02:18:02.794Z,0.00
2019-03-18T02:19:13.430Z,0.00
2019-03-18T02:20:24.655Z,0.00
2019-03-18T02:21:35.776Z,0.00
2019-03-18T02:22:46.405Z,0.00
2019-03-18T02:23:57.037Z,0.00
2019-03-18T02:25:08.151Z,0.00
2019-03-18T02:26:19.283Z,0.00
2019-03-18T02:27:29.910Z,0.00
2019-03-18T02:28:40.538Z,0.00
2019-03-18T02:29:51.674Z,0.00
2019-03-18T02:31:02.805Z,0.00
2019-03-18T02:32:13.426Z,0.00
2019-03-18T02:33:24.647Z,0.00
2019-03-18T02:34:35.270Z,0.00
2019-03-18T02:35:46.395Z,0.00
2019-03-18T02:36:57.023Z,0.00
2019-03-18T02:38:07.645Z,0.00
2019-03-18T02:39:18.285Z,0.00
2019-03-18T02:40:29.408Z,0.00
2019-03-18T02:41:40.051Z,0.00
2019-03-18T02:42:51.365Z,0.00
2019-03-18T02:44:01.964Z,0.00
2019-03-18T02:45:12.674Z,0.00
2019-03-18T02:46:23.225Z,0.00
2019-03-18T02:47:33.847Z,0.00
2019-03-18T02:48:44.624Z,0.00
2019-03-18T02:49:55.758Z,0.00
2019-03-18T02:51:07.877Z,0.00
2019-03-18T02:52:18.502Z,0.00
2019-03-18T02:53:29.126Z,0.00
2019-03-18T02:54:39.757Z,0.00
2019-03-18T02:55:50.880Z,0.00
2019-03-18T02:57:01.503Z,0.00
2019-03-18T02:58:12.148Z,0.00
2019-03-18T02:59:22.775Z,0.00
2019-03-18T03:00:33.404Z,0.00
2019-03-18T03:01:44.043Z,0.00
2019-03-18T03:02:54.661Z,0.00
2019-03-18T03:04:05.304Z,0.00
2019-03-18T03:05:16.448Z,0.00
2019-03-18T03:06:27.573Z,0.00
2019-03-18T03:07:38.699Z,0.00
2019-03-18T03:08:49.828Z,0.00
2019-03-18T03:10:01.956Z,0.00
2019-03-18T03:11:13.091Z,0.00
2019-03-18T03:12:24.232Z,0.00
2019-03-18T03:13:35.440Z,0.00
2019-03-18T03:14:45.989Z,0.00
2019-03-18T03:15:57.130Z,0.00
2019-03-18T03:17:08.768Z,0.00
2019-03-18T03:18:19.391Z,0.00
2019-03-18T03:19:30.623Z,0.00
2019-03-18T03:20:41.803Z,0.00
2019-03-18T03:21:52.888Z,0.00
2019-03-18T03:23:03.529Z,0.00
2019-03-18T03:24:14.679Z,0.00
2019-03-18T03:25:25.826Z,0.00
2019-03-18T03:26:36.470Z,0.00
2019-03-18T03:27:47.599Z,0.00
2019-03-18T03:28:58.241Z,0.00
2019-03-18T03:30:09.377Z,0.00
2019-03-18T03:31:20.630Z,0.00
2019-03-18T03:32:31.762Z,0.00
2019-03-18T03:33:42.405Z,0.00
2019-03-18T03:34:53.206Z,0.00
2019-03-18T03:36:04.157Z,0.00
2019-03-18T03:37:15.300Z,0.00
2019-03-18T03:38:25.933Z,0.00
2019-03-18T03:39:37.066Z,0.00
2019-03-18T03:40:47.700Z,0.00
2019-03-18T03:41:58.364Z,0.00
2019-03-18T03:43:09.010Z,0.00
2019-03-18T03:44:19.653Z,0.00
2019-03-18T03:45:30.788Z,0.00
2019-03-18T03:46:43.425Z,0.00
2019-03-18T03:47:52.342Z,0.00
2019-03-18T03:49:03.009Z,0.00
2019-03-18T03:50:14.121Z,0.00
2019-03-18T03:51:24.763Z,0.00
2019-03-18T03:52:35.402Z,0.00
2019-03-18T03:53:46.051Z,0.00
2019-03-18T03:54:56.693Z,0.00
2019-03-18T03:56:07.830Z,0.00
2019-03-18T03:57:18.636Z,0.00
2019-03-18T03:58:29.813Z,0.00
2019-03-18T03:59:40.427Z,0.00
2019-03-18T04:00:51.565Z,0.00
2019-03-18T04:02:02.230Z,0.00
2019-03-18T04:03:12.846Z,0.00
2019-03-18T04:04:23.491Z,0.00
2019-03-18T04:05:34.135Z,0.00
2019-03-18T04:06:45.287Z,0.00
2019-03-18T04:07:56.418Z,0.00
2019-03-18T04:09:07.056Z,0.00
2019-03-18T04:10:18.198Z,0.00
2019-03-18T04:11:28.837Z,0.00
2019-03-18T04:12:39.982Z,0.00
2019-03-18T04:13:51.115Z,0.00
2019-03-18T04:15:02.260Z,0.00
2019-03-18T04:16:13.384Z,0.00
2019-03-18T04:17:24.619Z,0.00
2019-03-18T04:18:35.267Z,0.00
2019-03-18T04:19:46.423Z,0.00
2019-03-18T04:20:57.080Z,0.00
2019-03-18T04:22:09.207Z,0.00
2019-03-18T04:23:20.360Z,0.00
2019-03-18T04:24:31.504Z,0.00
2019-03-18T04:25:42.146Z,0.00
2019-03-18T04:26:53.290Z,0.00
2019-03-18T04:28:04.424Z,0.00
2019-03-18T04:29:15.573Z,0.00
2019-03-18T04:30:26.206Z,0.00
2019-03-18T04:31:37.346Z,0.00
2019-03-18T04:32:47.986Z,0.00
2019-03-18T04:33:59.123Z,0.00
2019-03-18T04:35:10.271Z,0.00
2019-03-18T04:36:21.413Z,0.00
2019-03-18T04:37:32.622Z,0.00
2019-03-18T04:38:43.784Z,0.00
2019-03-18T04:39:54.429Z,0.00
2019-03-18T04:41:05.622Z,0.00
2019-03-18T04:42:16.229Z,0.00
2019-03-18T04:43:27.379Z,0.00
2019-03-18T04:44:38.535Z,0.00
2019-03-18T04:45:49.679Z,0.00
2019-03-18T04:47:13.430Z,0.00
2019-03-18T04:48:11.974Z,0.00
2019-03-18T04:49:23.130Z,0.00
2019-03-18T04:50:34.271Z,0.00
2019-03-18T04:51:45.423Z,0.00
2019-03-18T04:52:56.615Z,0.00
2019-03-18T04:54:07.755Z,0.00
2019-03-18T04:55:18.917Z,0.00
2019-03-18T04:56:31.060Z,0.00
2019-03-18T04:57:42.206Z,0.00
2019-03-18T04:58:53.342Z,0.00
2019-03-18T05:00:05.489Z,0.00
2019-03-18T05:01:16.636Z,0.00
2019-03-18T05:02:27.775Z,0.00
2019-03-18T05:03:38.914Z,0.00
2019-03-18T05:04:50.067Z,0.00
2019-03-18T05:06:01.210Z,0.00
2019-03-18T05:07:12.358Z,0.00
2019-03-18T05:08:23.511Z,0.00
2019-03-18T05:09:34.684Z,0.00
2019-03-18T05:10:45.830Z,0.00
2019-03-18T05:11:56.987Z,0.00
2019-03-18T05:13:08.132Z,0.00
2019-03-18T05:14:19.281Z,0.00
2019-03-18T05:15:30.433Z,0.00
2019-03-18T05:16:41.080Z,0.00
2019-03-18T05:17:52.222Z,0.00
2019-03-18T05:19:03.369Z,0.00
2019-03-18T05:20:14.625Z,0.00
2019-03-18T05:21:25.773Z,0.00
2019-03-18T05:22:36.927Z,0.00
2019-03-18T05:23:48.076Z,0.00
2019-03-18T05:24:59.241Z,0.00
2019-03-18T05:26:09.893Z,0.00
2019-03-18T05:27:21.054Z,0.00
2019-03-18T05:28:32.194Z,0.00
2019-03-18T05:29:43.335Z,5.63
2019-03-18T05:30:54.630Z,5.63
2019-03-18T05:32:05.762Z,5.63
2019-03-18T05:33:16.914Z,5.63
2019-03-18T05:34:28.067Z,5.63
2019-03-18T05:35:40.217Z,5.63
2019-03-18T05:36:51.355Z,11.25
2019-03-18T05:38:02.616Z,11.25
2019-03-18T05:39:13.265Z,11.25
2019-03-18T05:40:23.914Z,11.25
2019-03-18T05:41:35.062Z,16.88
2019-03-18T05:42:46.210Z,16.88
2019-03-18T05:43:57.352Z,16.88
2019-03-18T05:45:08.617Z,22.50
2019-03-18T05:46:20.767Z,16.88
2019-03-18T05:47:39.060Z,16.88
2019-03-18T05:48:43.046Z,22.50
2019-03-18T05:49:54.703Z,22.50
2019-03-18T05:51:05.359Z,28.13
2019-03-18T05:52:16.642Z,28.13
2019-03-18T05:53:27.774Z,33.75
2019-03-18T05:54:38.422Z,33.75
2019-03-18T05:55:49.564Z,39.38
2019-03-18T05:57:00.230Z,39.38
2019-03-18T05:58:11.374Z,39.38
2019-03-18T05:59:22.625Z,39.38
2019-03-18T06:00:33.783Z,45.00
2019-03-18T06:01:44.940Z,45.00
2019-03-18T06:02:56.082Z,50.63
2019-03-18T06:04:07.271Z,56.25
2019-03-18T06:05:17.921Z,61.88
2019-03-18T06:06:28.584Z,61.88
2019-03-18T06:07:40.231Z,61.88
2019-03-18T06:08:50.887Z,67.50
2019-03-18T06:10:02.056Z,61.88
2019-03-18T06:11:13.235Z,61.88
2019-03-18T06:12:24.382Z,61.88
2019-03-18T06:13:35.535Z,61.88
2019-03-18T06:14:46.690Z,56.25
2019-03-18T06:15:57.859Z,61.88
2019-03-18T06:17:09.025Z,50.63
2019-03-18T06:18:20.170Z,50.63
2019-03-18T06:19:31.327Z,45.00
2019-03-18T06:20:42.484Z,56.25
2019-03-18T06:21:53.637Z,73.13
2019-03-18T06:23:04.790Z,90.00
2019-03-18T06:24:15.941Z,78.75
2019-03-18T06:25:27.101Z,73.13
2019-03-18T06:26:38.268Z,78.75
2019-03-18T06:27:49.450Z,84.38
2019-03-18T06:29:00.623Z,90.00
2019-03-18T06:30:11.285Z,95.63
2019-03-18T06:31:22.457Z,95.63
2019-03-18T06:32:33.612Z,112.50
2019-03-18T06:33:44.774Z,123.75
2019-03-18T06:34:55.938Z,135.00
2019-03-18T06:36:07.117Z,140.63
2019-03-18T06:37:18.298Z,151.88
2019-03-18T06:38:29.463Z,168.75
2019-03-18T06:39:40.619Z,191.25
2019-03-18T06:40:51.792Z,219.38
2019-03-18T06:42:03.748Z,225.00
2019-03-18T06:43:14.921Z,174.38
2019-03-18T06:44:26.113Z,180.00
2019-03-18T06:45:37.290Z,185.63
2019-03-18T06:46:48.479Z,191.25
2019-03-18T06:48:04.930Z,185.63
2019-03-18T06:49:10.334Z,180.00
2019-03-18T06:50:21.513Z,202.50
2019-03-18T06:51:32.692Z,202.50
2019-03-18T06:52:43.906Z,191.25
2019-03-18T06:53:55.096Z,180.00
2019-03-18T06:55:06.273Z,185.63
2019-03-18T06:56:17.470Z,180.00
2019-03-18T06:57:28.681Z,213.75
2019-03-18T06:58:40.872Z,230.63
2019-03-18T06:59:52.051Z,236.25
2019-03-18T07:01:03.242Z,225.00
2019-03-18T07:02:14.426Z,253.13
2019-03-18T07:03:25.616Z,247.50
2019-03-18T07:04:36.807Z,230.63
2019-03-18T07:05:48.017Z,247.50
2019-03-18T07:06:59.211Z,264.38
2019-03-18T07:08:10.408Z,247.50
2019-03-18T07:09:21.618Z,258.75
2019-03-18T07:10:33.812Z,225.00
2019-03-18T07:11:45.007Z,196.88
2019-03-18T07:12:56.214Z,191.25
2019-03-18T07:14:07.423Z,191.25
2019-03-18T07:15:18.623Z,196.88
2019-03-18T07:16:29.833Z,196.88
2019-03-18T07:17:41.033Z,174.38
2019-03-18T07:18:52.239Z,157.50
2019-03-18T07:20:03.448Z,123.75
2019-03-18T07:21:14.970Z,106.88
2019-03-18T07:22:25.866Z,95.63
2019-03-18T07:23:36.579Z,90.00
2019-03-18T07:24:47.782Z,84.38
2019-03-18T07:25:58.983Z,73.13
2019-03-18T07:27:10.179Z,78.75
2019-03-18T07:28:20.881Z,84.38
2019-03-18T07:29:31.596Z,84.38
2019-03-18T07:30:42.798Z,101.25
2019-03-18T07:31:53.994Z,118.13
2019-03-18T07:33:05.194Z,118.13
2019-03-18T07:34:16.397Z,118.13
2019-03-18T07:35:27.619Z,140.63
2019-03-18T07:36:38.797Z,151.88
2019-03-18T07:37:49.984Z,174.38
2019-03-18T07:39:01.194Z,185.63
2019-03-18T07:40:12.395Z,180.00
2019-03-18T07:41:23.599Z,196.88
2019-03-18T07:42:34.796Z,219.38
2019-03-18T07:43:45.505Z,213.75
2019-03-18T07:44:56.723Z,196.88
2019-03-18T07:46:07.924Z,146.25
2019-03-18T07:47:19.130Z,140.63
2019-03-18T07:48:31.593Z,135.00
2019-03-18T07:49:41.543Z,146.25
2019-03-18T07:50:52.736Z,157.50
2019-03-18T07:52:03.935Z,168.75
2019-03-18T07:53:15.141Z,185.63
2019-03-18T07:54:32.786Z,208.13
2019-03-18T07:55:37.220Z,230.63
2019-03-18T07:56:48.353Z,225.00
2019-03-18T07:57:59.555Z,230.63
2019-03-18T07:59:10.772Z,225.00
2019-03-18T08:00:21.981Z,241.88
2019-03-18T08:01:33.198Z,264.38
2019-03-18T08:02:44.415Z,281.25
2019-03-18T08:03:55.632Z,264.38
2019-03-18T08:05:06.838Z,258.75
2019-03-18T08:06:18.050Z,225.00
2019-03-18T08:07:29.265Z,202.50
2019-03-18T08:08:41.471Z,191.25
2019-03-18T08:09:52.681Z,191.25
2019-03-18T08:11:03.919Z,219.38
2019-03-18T08:12:15.107Z,213.75
2019-03-18T08:13:26.054Z,202.50
2019-03-18T08:14:37.269Z,202.50
2019-03-18T08:15:47.997Z,196.88
2019-03-18T08:16:59.223Z,219.38
2019-03-18T08:18:09.938Z,202.50
2019-03-18T08:19:21.154Z,258.75
2019-03-18T08:20:32.367Z,258.75
2019-03-18T08:21:43.582Z,253.13
2019-03-18T08:22:54.803Z,275.63
2019-03-18T08:24:05.523Z,264.38
2019-03-18T08:25:16.739Z,230.63
2019-03-18T08:26:27.620Z,208.13
2019-03-18T08:27:39.006Z,241.88
2019-03-18T08:28:49.735Z,191.25
2019-03-18T08:30:00.620Z,225.00
2019-03-18T08:31:11.355Z,298.13
2019-03-18T08:32:22.087Z,393.75
2019-03-18T08:33:32.813Z,455.63
2019-03-18T08:34:44.029Z,551.25
2019-03-18T08:35:55.262Z,714.38
2019-03-18T08:37:06.630Z,551.25
2019-03-18T08:38:17.853Z,483.75
2019-03-18T08:39:34.353Z,489.38
2019-03-18T08:40:45.602Z,410.63
2019-03-18T08:41:57.856Z,371.25
2019-03-18T08:43:09.097Z,427.50
2019-03-18T08:44:19.847Z,618.75
2019-03-18T08:45:30.609Z,613.13
2019-03-18T08:46:41.868Z,472.50
2019-03-18T08:47:53.140Z,450.00
2019-03-18T08:49:04.395Z,438.75
2019-03-18T08:50:15.667Z,556.88
2019-03-18T08:51:26.976Z,500.63
2019-03-18T08:52:38.247Z,568.13
2019-03-18T08:53:49.030Z,613.13
2019-03-18T08:55:00.366Z,568.13
2019-03-18T08:56:11.087Z,461.25
2019-03-18T08:57:22.373Z,483.75
2019-03-18T08:58:33.187Z,466.88
2019-03-18T08:59:43.970Z,466.88
2019-03-18T09:00:55.267Z,601.88
2019-03-18T09:02:06.623Z,607.50
2019-03-18T09:03:17.417Z,540.00
2019-03-18T09:04:28.236Z,466.88
2019-03-18T09:05:39.050Z,646.88
2019-03-18T09:06:50.361Z,675.00
2019-03-18T09:08:01.669Z,562.50
2019-03-18T09:09:12.973Z,579.38
2019-03-18T09:10:24.276Z,540.00
2019-03-18T09:11:35.600Z,635.63
2019-03-18T09:12:46.418Z,675.00
2019-03-18T09:13:57.228Z,534.38
2019-03-18T09:15:08.622Z,489.38
2019-03-18T09:16:19.939Z,568.13
2019-03-18T09:17:31.288Z,641.25
2019-03-18T09:18:42.611Z,646.88
2019-03-18T09:19:53.944Z,691.88
2019-03-18T09:21:04.758Z,708.75
2019-03-18T09:22:15.590Z,652.50
2019-03-18T09:23:26.422Z,708.75
2019-03-18T09:24:37.249Z,826.88
2019-03-18T09:25:48.100Z,776.25
2019-03-18T09:27:02.697Z,849.38
2019-03-18T09:28:10.793Z,776.25
2019-03-18T09:29:22.133Z,804.38
2019-03-18T09:30:32.979Z,1338.75
2019-03-18T09:31:44.324Z,1479.38
2019-03-18T09:32:55.708Z,596.25
2019-03-18T09:34:06.574Z,523.13
2019-03-18T09:35:17.442Z,545.63
2019-03-18T09:36:28.311Z,646.88
2019-03-18T09:37:39.680Z,1085.63
2019-03-18T09:38:50.553Z,1141.88
2019-03-18T09:40:01.440Z,1378.13
2019-03-18T09:41:12.325Z,950.63
2019-03-18T09:42:23.231Z,568.13
2019-03-18T09:43:34.332Z,438.75
2019-03-18T09:44:45.233Z,1653.75
2019-03-18T09:45:56.127Z,736.88
2019-03-18T09:47:07.033Z,1057.50
2019-03-18T09:48:18.440Z,1417.50
2019-03-18T09:49:29.360Z,1327.50
2019-03-18T09:50:40.285Z,1215.00
2019-03-18T09:51:51.719Z,601.88
2019-03-18T09:53:02.660Z,528.75
2019-03-18T09:54:13.602Z,590.63
2019-03-18T09:55:24.540Z,810.00
2019-03-18T09:56:35.500Z,866.25
2019-03-18T09:57:46.430Z,511.88
2019-03-18T09:58:57.856Z,410.63
2019-03-18T10:00:08.788Z,500.63
2019-03-18T10:01:19.718Z,956.25
2019-03-18T10:02:31.134Z,821.25
2019-03-18T10:03:42.069Z,855.00
2019-03-18T10:04:53.010Z,1271.25
2019-03-18T10:06:04.617Z,2958.75
2019-03-18T10:07:15.581Z,2857.50
2019-03-18T10:08:26.563Z,1912.50
2019-03-18T10:09:37.558Z,995.63
2019-03-18T10:10:48.569Z,2638.13
2019-03-18T10:12:00.079Z,517.50
2019-03-18T10:13:11.113Z,478.13
2019-03-18T10:14:22.144Z,466.88
2019-03-18T10:15:33.182Z,500.63
2019-03-18T10:16:44.209Z,500.63
2019-03-18T10:17:55.219Z,483.75
2019-03-18T10:19:06.235Z,337.50
2019-03-18T10:20:17.742Z,320.63
2019-03-18T10:21:29.219Z,331.88
2019-03-18T10:22:40.709Z,354.38
2019-03-18T10:23:51.676Z,450.00
2019-03-18T10:25:04.254Z,607.50
2019-03-18T10:26:14.639Z,669.38
2019-03-18T10:27:26.116Z,534.38
2019-03-18T10:28:37.066Z,613.13
2019-03-18T10:29:48.623Z,748.13
2019-03-18T10:31:00.063Z,1147.50
2019-03-18T10:32:11.004Z,1749.38
2019-03-18T10:33:21.959Z,821.25
2019-03-18T10:34:33.421Z,945.00
2019-03-18T10:35:44.397Z,933.75
2019-03-18T10:36:55.865Z,1327.50
2019-03-18T10:38:07.325Z,978.75
2019-03-18T10:39:18.329Z,742.50
2019-03-18T10:40:29.816Z,770.63
2019-03-18T10:41:41.312Z,2576.25
2019-03-18T10:42:52.321Z,2570.63
2019-03-18T10:44:04.837Z,2520.00
2019-03-18T10:45:15.890Z,2430.00
2019-03-18T10:46:27.469Z,2503.13
2019-03-18T10:47:38.573Z,2418.75
2019-03-18T10:48:50.194Z,2356.88
2019-03-18T10:50:01.856Z,2334.38
2019-03-18T10:51:13.034Z,2413.13
2019-03-18T10:52:24.254Z,2272.50
2019-03-18T10:53:35.424Z,2407.50
2019-03-18T10:54:46.650Z,2604.38
2019-03-18T10:56:07.326Z,2806.88
2019-03-18T10:57:09.171Z,1513.13
2019-03-18T10:58:20.968Z,967.50
2019-03-18T10:59:32.255Z,472.50
2019-03-18T11:00:43.567Z,410.63
2019-03-18T11:01:55.327Z,427.50
2019-03-18T11:03:06.593Z,326.25
2019-03-18T11:04:18.337Z,275.63
2019-03-18T11:05:30.048Z,286.88
2019-03-18T11:06:41.748Z,348.75
2019-03-18T11:07:52.929Z,478.13
2019-03-18T11:09:04.084Z,978.75
2019-03-18T11:10:15.247Z,1141.88
2019-03-18T11:11:26.395Z,731.25
2019-03-18T11:12:37.545Z,624.38
2019-03-18T11:13:48.674Z,635.63
2019-03-18T11:14:59.801Z,759.38
2019-03-18T11:16:11.418Z,1355.63
2019-03-18T11:17:22.535Z,776.25
2019-03-18T11:18:33.638Z,759.38
2019-03-18T11:19:44.747Z,658.13
2019-03-18T11:20:55.852Z,590.63
2019-03-18T11:22:07.017Z,483.75
2019-03-18T11:23:18.015Z,365.63
2019-03-18T11:24:29.074Z,286.88
2019-03-18T11:25:40.157Z,213.75
2019-03-18T11:26:51.215Z,157.50
2019-03-18T11:28:02.256Z,129.38
2019-03-18T11:29:13.290Z,101.25
2019-03-18T11:30:24.792Z,78.75
2019-03-18T11:31:35.800Z,84.38
2019-03-18T11:32:46.803Z,140.63
2019-03-18T11:33:57.792Z,202.50
2019-03-18T11:35:08.772Z,241.88
2019-03-18T11:36:19.742Z,264.38
2019-03-18T11:37:30.699Z,264.38
2019-03-18T11:38:43.136Z,230.63
2019-03-18T11:39:54.629Z,180.00
2019-03-18T11:41:06.049Z,112.50
2019-03-18T11:42:16.972Z,106.88
2019-03-18T11:43:27.876Z,112.50
2019-03-18T11:44:39.281Z,118.13
2019-03-18T11:45:50.182Z,112.50
2019-03-18T11:47:01.587Z,112.50
2019-03-18T11:48:12.463Z,151.88
2019-03-18T11:49:23.333Z,247.50
2019-03-18T11:50:34.205Z,410.63
2019-03-18T11:51:45.559Z,568.13
2019-03-18T11:52:56.425Z,748.13
2019-03-18T11:54:07.789Z,916.88
2019-03-18T11:55:19.163Z,2441.25
2019-03-18T11:56:30.070Z,2306.25
2019-03-18T11:57:41.495Z,2160.00
2019-03-18T11:58:52.438Z,2120.63
2019-03-18T12:00:03.417Z,2334.38
2019-03-18T12:01:14.418Z,2317.50
2019-03-18T12:02:27.890Z,1991.25
2019-03-18T12:03:36.517Z,1732.50
2019-03-18T12:04:47.590Z,2261.25
2019-03-18T12:05:58.709Z,2283.75
2019-03-18T12:07:10.331Z,2238.75
2019-03-18T12:08:21.994Z,2221.88
2019-03-18T12:09:33.166Z,2266.88
2019-03-18T12:10:44.357Z,2373.75
2019-03-18T12:11:56.048Z,2418.75
2019-03-18T12:13:08.274Z,2126.25
2019-03-18T12:14:19.506Z,410.63
2019-03-18T12:15:30.733Z,360.00
2019-03-18T12:16:41.946Z,320.63
2019-03-18T12:17:53.178Z,236.25
2019-03-18T12:19:04.326Z,225.00
2019-03-18T12:20:24.540Z,230.63
2019-03-18T12:21:27.616Z,202.50
2019-03-18T12:22:39.236Z,196.88
2019-03-18T12:25:02.909Z,270.00
2019-03-18T12:26:14.691Z,303.75
2019-03-18T12:27:26.184Z,315.00
2019-03-18T12:28:37.724Z,331.88
2019-03-18T12:29:48.750Z,343.13
2019-03-18T12:30:59.829Z,348.75
2019-03-18T12:32:11.251Z,371.25
2019-03-18T12:33:22.252Z,405.00
2019-03-18T12:34:33.241Z,461.25
2019-03-18T12:35:44.215Z,562.50
2019-03-18T12:36:55.186Z,714.38
2019-03-18T12:38:06.657Z,1940.63
2019-03-18T12:39:17.632Z,1440.00
2019-03-18T12:40:29.108Z,3015.00
2019-03-18T12:41:40.627Z,3071.25
2019-03-18T12:42:51.648Z,3161.25
2019-03-18T12:44:03.218Z,2992.50
2019-03-18T12:45:14.804Z,2874.38
2019-03-18T12:46:25.933Z,2716.88
2019-03-18T12:47:37.091Z,1940.63
2019-03-18T12:48:48.266Z,1822.50
2019-03-18T12:50:00.450Z,1485.00
2019-03-18T12:51:11.638Z,2385.00
2019-03-18T12:52:22.839Z,714.38
2019-03-18T12:53:34.044Z,579.38
2019-03-18T12:54:45.230Z,500.63
2019-03-18T12:55:56.909Z,388.13
2019-03-18T12:57:08.066Z,258.75
2019-03-18T12:58:19.200Z,213.75
2019-03-18T12:59:30.811Z,213.75
2019-03-18T13:00:42.420Z,202.50
2019-03-18T13:01:53.512Z,213.75
2019-03-18T13:03:04.600Z,241.88
2019-03-18T13:04:15.664Z,286.88
2019-03-18T13:05:26.711Z,348.75
2019-03-18T13:06:38.252Z,444.38
2019-03-18T13:07:49.774Z,686.25
2019-03-18T13:09:01.282Z,697.50
2019-03-18T13:10:12.291Z,815.63
2019-03-18T13:11:23.790Z,663.75
2019-03-18T13:12:34.804Z,551.25
2019-03-18T13:13:45.802Z,590.63
2019-03-18T13:14:57.284Z,618.75
2019-03-18T13:16:08.777Z,776.25
2019-03-18T13:17:19.749Z,736.88
2019-03-18T13:18:30.734Z,871.88
2019-03-18T13:19:42.231Z,939.38
2019-03-18T13:20:53.225Z,1485.00
2019-03-18T13:22:04.718Z,1316.25
2019-03-18T13:23:15.736Z,3161.25
2019-03-18T13:24:27.257Z,3155.63
2019-03-18T13:25:38.811Z,3256.88
2019-03-18T13:26:49.879Z,2075.63
2019-03-18T13:28:01.465Z,3211.88
2019-03-18T13:29:13.065Z,3206.25
2019-03-18T13:30:24.198Z,3285.00
2019-03-18T13:31:35.818Z,691.88
2019-03-18T13:32:47.472Z,624.38
2019-03-18T13:33:59.099Z,478.13
2019-03-18T13:35:10.735Z,472.50
2019-03-18T13:36:25.201Z,528.75
2019-03-18T13:37:33.458Z,601.88
2019-03-18T13:38:44.654Z,2143.13
2019-03-18T13:39:55.769Z,2806.88
2019-03-18T13:41:06.884Z,2733.75
2019-03-18T13:42:18.071Z,2598.75
2019-03-18T13:43:29.216Z,2593.13
2019-03-18T13:44:40.882Z,2486.25
2019-03-18T13:45:55.653Z,2452.50
2019-03-18T13:47:04.294Z,2683.13
2019-03-18T13:48:15.973Z,2677.50
2019-03-18T13:49:27.666Z,2587.50
2019-03-18T13:50:40.372Z,2475.00
2019-03-18T13:51:52.082Z,2638.13
2019-03-18T13:53:03.811Z,2857.50
2019-03-18T13:54:15.589Z,2913.75
2019-03-18T13:55:26.836Z,2857.50
2019-03-18T13:56:38.586Z,2688.75
2019-03-18T13:57:49.848Z,2576.25
2019-03-18T13:59:01.600Z,2660.63
2019-03-18T14:00:13.386Z,2705.63
2019-03-18T14:01:25.168Z,2705.63
2019-03-18T14:02:36.935Z,2621.25
2019-03-18T14:03:48.715Z,2441.25
2019-03-18T14:05:00.012Z,2424.38
2019-03-18T14:06:11.800Z,2475.00
2019-03-18T14:07:23.096Z,2351.25
2019-03-18T14:08:34.405Z,2278.13
2019-03-18T14:09:46.217Z,2227.50
2019-03-18T14:10:57.518Z,2131.88
2019-03-18T14:12:08.831Z,2036.25
2019-03-18T14:13:20.132Z,1288.13
2019-03-18T14:14:31.448Z,568.13
2019-03-18T14:15:43.251Z,483.75
2019-03-18T14:16:55.063Z,450.00
2019-03-18T14:18:06.862Z,438.75
2019-03-18T14:19:18.184Z,433.13
2019-03-18T14:20:30.004Z,427.50
2019-03-18T14:21:41.318Z,421.88
2019-03-18T14:22:52.653Z,410.63
2019-03-18T14:24:04.628Z,399.38
2019-03-18T14:25:16.025Z,393.75
2019-03-18T14:26:27.277Z,382.50
2019-03-18T14:27:38.601Z,376.88
2019-03-18T14:28:49.919Z,365.63
2019-03-18T14:30:01.745Z,360.00
2019-03-18T14:31:13.558Z,354.38
2019-03-18T14:32:24.884Z,354.38
2019-03-18T14:33:36.669Z,354.38
2019-03-18T14:34:47.986Z,348.75
2019-03-18T14:35:59.797Z,343.13
2019-03-18T14:37:11.609Z,337.50
2019-03-18T14:38:22.919Z,337.50
2019-03-18T14:39:34.214Z,337.50
2019-03-18T14:40:46.028Z,331.88
2019-03-18T14:41:57.337Z,331.88
2019-03-18T14:43:09.139Z,343.13
2019-03-18T14:44:20.935Z,371.25
2019-03-18T14:45:32.238Z,433.13
2019-03-18T14:46:43.576Z,461.25
2019-03-18T14:47:54.871Z,455.63
2019-03-18T14:49:06.626Z,466.88
2019-03-18T14:50:18.904Z,455.63
2019-03-18T14:51:30.165Z,438.75
2019-03-18T14:52:41.413Z,399.38
2019-03-18T14:53:52.657Z,348.75
2019-03-18T14:55:04.367Z,286.88
2019-03-18T14:56:16.073Z,264.38
2019-03-18T14:57:27.274Z,264.38
2019-03-18T14:58:39.455Z,298.13
2019-03-18T14:59:51.109Z,286.88
2019-03-18T15:01:02.762Z,315.00
2019-03-18T15:02:13.891Z,360.00
2019-03-18T15:03:25.019Z,405.00
2019-03-18T15:04:36.143Z,371.25
2019-03-18T15:05:47.743Z,320.63
2019-03-18T15:06:58.843Z,253.13
2019-03-18T15:08:09.932Z,191.25